EGHC

Land's End Airport

Land's End, United Kingdom
METAR EGHC 171720Z 23013KT 9999 -RA FEW005 SCT015 08/07 Q1020
Observed Flight Rules
Feb-17 @ 17:20 UTC (14 hours ago) Visual Flight Rules
Wind Visibility Clouds Conditions
230° at 13 knots 10,000+ meters
  • Few at 500' AGL
  • Scattered at 1,500' AGL
  • Light Rain
Temperatures Readings
Current 8°C / 46°F
Dewpoint 7°C / 45°F
Humidity 93%
Altimeter 30.12" Hg
Pressure 1020 hPa
Elevation 122
METAR EGHC 171720Z 23013KT 9999 -RA FEW005 SCT015 08/07 Q1020
Observed Flight Rules
Feb-17 @ 17:20 UTC
(14 hours ago)
VFR
Wind Visibility
230° at 13 knots 10,000+ meters
Clouds
  • Few at 500' AGL
  • Scattered at 1,500' AGL
Conditions
  • Light Rain
Temperature Dewpoint
8°C / 46°F 7°C / 45°F
Humidity Altimeter Pressure
93% 30.12" Hg 1020 hPa